sensor_id;sensor_type;location;lat;lon;timestamp;temperature;humidity
10702;DHT22;5402;50.004;8.246;2022-09-11T00:00:04;15.00;99.90
10702;DHT22;5402;50.004;8.246;2022-09-11T00:02:33;14.90;99.90
10702;DHT22;5402;50.004;8.246;2022-09-11T00:05:01;14.90;99.90
10702;DHT22;5402;50.004;8.246;2022-09-11T00:07:28;14.80;99.90
10702;DHT22;5402;50.004;8.246;2022-09-11T00:09:56;14.90;99.90
10702;DHT22;5402;50.004;8.246;2022-09-11T00:12:24;14.90;99.90
10702;DHT22;5402;50.004;8.246;2022-09-11T00:14:51;14.90;99.90
10702;DHT22;5402;50.004;8.246;2022-09-11T00:17:18;15.00;99.90
10702;DHT22;5402;50.004;8.246;2022-09-11T00:19:46;14.90;99.90
10702;DHT22;5402;50.004;8.246;2022-09-11T00:22:13;14.90;99.90
10702;DHT22;5402;50.004;8.246;2022-09-11T00:24:39;14.90;99.90
10702;DHT22;5402;50.004;8.246;2022-09-11T00:27:08;14.90;99.90
10702;DHT22;5402;50.004;8.246;2022-09-11T00:29:35;14.80;99.90
10702;DHT22;5402;50.004;8.246;2022-09-11T00:32:02;15.00;99.90
10702;DHT22;5402;50.004;8.246;2022-09-11T00:34:29;14.90;99.90
10702;DHT22;5402;50.004;8.246;2022-09-11T00:36:57;15.00;99.90
10702;DHT22;5402;50.004;8.246;2022-09-11T00:39:25;15.00;99.90
10702;DHT22;5402;50.004;8.246;2022-09-11T00:41:52;15.00;99.90
10702;DHT22;5402;50.004;8.246;2022-09-11T00:45:00;15.00;99.90
10702;DHT22;5402;50.004;8.246;2022-09-11T00:47:28;15.00;99.90
10702;DHT22;5402;50.004;8.246;2022-09-11T00:50:05;15.00;99.90
10702;DHT22;5402;50.004;8.246;2022-09-11T00:52:36;14.90;99.90
10702;DHT22;5402;50.004;8.246;2022-09-11T00:55:08;14.90;99.90
10702;DHT22;5402;50.004;8.246;2022-09-11T00:57:39;14.90;99.90
10702;DHT22;5402;50.004;8.246;2022-09-11T01:00:11;15.00;99.90
10702;DHT22;5402;50.004;8.246;2022-09-11T01:02:40;14.90;99.90
10702;DHT22;5402;50.004;8.246;2022-09-11T01:05:09;15.00;99.90
10702;DHT22;5402;50.004;8.246;2022-09-11T01:07:38;15.00;99.90
10702;DHT22;5402;50.004;8.246;2022-09-11T01:10:07;14.90;99.90
10702;DHT22;5402;50.004;8.246;2022-09-11T01:12:42;14.90;99.90
10702;DHT22;5402;50.004;8.246;2022-09-11T01:15:19;15.10;99.90
10702;DHT22;5402;50.004;8.246;2022-09-11T01:17:53;14.90;99.90
10702;DHT22;5402;50.004;8.246;2022-09-11T01:20:34;14.90;99.90
10702;DHT22;5402;50.004;8.246;2022-09-11T01:26:31;15.00;99.90
10702;DHT22;5402;50.004;8.246;2022-09-11T01:29:04;15.00;99.90
10702;DHT22;5402;50.004;8.246;2022-09-11T01:31:38;15.00;99.90
10702;DHT22;5402;50.004;8.246;2022-09-11T01:34:10;15.00;99.90
10702;DHT22;5402;50.004;8.246;2022-09-11T01:36:44;15.20;99.90
10702;DHT22;5402;50.004;8.246;2022-09-11T01:39:13;15.00;99.90
10702;DHT22;5402;50.004;8.246;2022-09-11T01:41:47;15.00;99.90
10702;DHT22;5402;50.004;8.246;2022-09-11T01:44:22;15.00;99.90
10702;DHT22;5402;50.004;8.246;2022-09-11T01:46:52;15.00;99.90
10702;DHT22;5402;50.004;8.246;2022-09-11T01:49:22;15.00;99.90
10702;DHT22;5402;50.004;8.246;2022-09-11T01:51:54;15.00;99.90
10702;DHT22;5402;50.004;8.246;2022-09-11T01:54:25;15.10;99.90
10702;DHT22;5402;50.004;8.246;2022-09-11T01:56:58;15.00;99.90
10702;DHT22;5402;50.004;8.246;2022-09-11T01:59:32;15.10;99.90
10702;DHT22;5402;50.004;8.246;2022-09-11T02:02:04;15.00;99.90
10702;DHT22;5402;50.004;8.246;2022-09-11T02:04:35;15.10;99.90
10702;DHT22;5402;50.004;8.246;2022-09-11T02:07:06;15.00;99.90
10702;DHT22;5402;50.004;8.246;2022-09-11T02:09:37;14.90;99.90
10702;DHT22;5402;50.004;8.246;2022-09-11T02:12:09;14.90;99.90
10702;DHT22;5402;50.004;8.246;2022-09-11T02:14:40;15.00;99.90
10702;DHT22;5402;50.004;8.246;2022-09-11T02:17:14;15.00;99.90
10702;DHT22;5402;50.004;8.246;2022-09-11T02:19:43;14.90;99.90
10702;DHT22;5402;50.004;8.246;2022-09-11T02:22:10;14.90;99.90
10702;DHT22;5402;50.004;8.246;2022-09-11T02:24:37;14.90;99.90
10702;DHT22;5402;50.004;8.246;2022-09-11T02:27:06;14.90;99.90
10702;DHT22;5402;50.004;8.246;2022-09-11T02:29:35;15.00;99.90
10702;DHT22;5402;50.004;8.246;2022-09-11T02:32:05;15.00;99.90
10702;DHT22;5402;50.004;8.246;2022-09-11T02:34:33;14.90;99.90
10702;DHT22;5402;50.004;8.246;2022-09-11T02:37:13;14.80;99.90
10702;DHT22;5402;50.004;8.246;2022-09-11T02:39:58;14.90;99.90
10702;DHT22;5402;50.004;8.246;2022-09-11T02:42:43;14.80;99.90
10702;DHT22;5402;50.004;8.246;2022-09-11T02:45:23;14.80;99.90
10702;DHT22;5402;50.004;8.246;2022-09-11T02:48:01;14.80;99.90
10702;DHT22;5402;50.004;8.246;2022-09-11T02:50:40;14.70;99.90
10702;DHT22;5402;50.004;8.246;2022-09-11T02:53:13;14.80;99.90
10702;DHT22;5402;50.004;8.246;2022-09-11T02:55:53;14.70;99.90
10702;DHT22;5402;50.004;8.246;2022-09-11T02:58:25;14.70;99.90
10702;DHT22;5402;50.004;8.246;2022-09-11T03:00:54;14.70;99.90
10702;DHT22;5402;50.004;8.246;2022-09-11T03:03:25;14.70;99.90
10702;DHT22;5402;50.004;8.246;2022-09-11T03:05:52;14.60;99.90
10702;DHT22;5402;50.004;8.246;2022-09-11T03:08:20;14.70;99.90
10702;DHT22;5402;50.004;8.246;2022-09-11T03:10:47;14.70;99.90
10702;DHT22;5402;50.004;8.246;2022-09-11T03:13:14;14.70;99.90
10702;DHT22;5402;50.004;8.246;2022-09-11T03:15:41;14.70;99.90
10702;DHT22;5402;50.004;8.246;2022-09-11T03:18:10;14.70;99.90
10702;DHT22;5402;50.004;8.246;2022-09-11T03:20:43;14.70;99.90
10702;DHT22;5402;50.004;8.246;2022-09-11T03:23:11;14.70;99.90
10702;DHT22;5402;50.004;8.246;2022-09-11T03:25:39;14.60;99.90
10702;DHT22;5402;50.004;8.246;2022-09-11T03:28:06;14.80;99.90
10702;DHT22;5402;50.004;8.246;2022-09-11T03:30:35;14.70;99.90
10702;DHT22;5402;50.004;8.246;2022-09-11T03:33:02;14.70;99.90
10702;DHT22;5402;50.004;8.246;2022-09-11T03:35:29;14.80;99.90
10702;DHT22;5402;50.004;8.246;2022-09-11T03:38:03;14.80;99.90
10702;DHT22;5402;50.004;8.246;2022-09-11T03:40:30;14.60;99.90
10702;DHT22;5402;50.004;8.246;2022-09-11T03:42:56;14.70;99.90
10702;DHT22;5402;50.004;8.246;2022-09-11T03:45:24;14.70;99.90
10702;DHT22;5402;50.004;8.246;2022-09-11T03:47:51;14.70;99.90
10702;DHT22;5402;50.004;8.246;2022-09-11T03:50:19;14.70;99.90
10702;DHT22;5402;50.004;8.246;2022-09-11T03:52:48;14.70;99.90
10702;DHT22;5402;50.004;8.246;2022-09-11T03:55:16;14.70;99.90
10702;DHT22;5402;50.004;8.246;2022-09-11T03:57:43;14.80;99.90
10702;DHT22;5402;50.004;8.246;2022-09-11T04:00:12;14.80;99.90
10702;DHT22;5402;50.004;8.246;2022-09-11T04:02:41;14.80;99.90
10702;DHT22;5402;50.004;8.246;2022-09-11T04:05:08;15.00;99.90
10702;DHT22;5402;50.004;8.246;2022-09-11T04:07:35;14.80;99.90
10702;DHT22;5402;50.004;8.246;2022-09-11T04:10:03;14.80;99.90
10702;DHT22;5402;50.004;8.246;2022-09-11T04:12:32;14.80;99.90
10702;DHT22;5402;50.004;8.246;2022-09-11T04:14:59;14.80;99.90
10702;DHT22;5402;50.004;8.246;2022-09-11T04:17:28;14.80;99.90
10702;DHT22;5402;50.004;8.246;2022-09-11T04:19:55;14.80;99.90
10702;DHT22;5402;50.004;8.246;2022-09-11T04:22:25;14.90;99.90
10702;DHT22;5402;50.004;8.246;2022-09-11T04:24:52;14.80;99.90
10702;DHT22;5402;50.004;8.246;2022-09-11T04:27:21;15.00;99.90
10702;DHT22;5402;50.004;8.246;2022-09-11T04:29:53;14.90;99.90
10702;DHT22;5402;50.004;8.246;2022-09-11T04:32:20;14.70;99.90
10702;DHT22;5402;50.004;8.246;2022-09-11T04:34:46;14.80;99.90
10702;DHT22;5402;50.004;8.246;2022-09-11T04:37:13;14.70;99.90
10702;DHT22;5402;50.004;8.246;2022-09-11T04:39:40;14.70;99.90
10702;DHT22;5402;50.004;8.246;2022-09-11T04:42:09;14.70;99.90
10702;DHT22;5402;50.004;8.246;2022-09-11T04:44:36;14.70;99.90
10702;DHT22;5402;50.004;8.246;2022-09-11T04:47:05;14.70;99.90
10702;DHT22;5402;50.004;8.246;2022-09-11T04:49:31;14.70;99.90
10702;DHT22;5402;50.004;8.246;2022-09-11T04:51:58;14.70;99.90
10702;DHT22;5402;50.004;8.246;2022-09-11T04:54:27;14.60;99.90
10702;DHT22;5402;50.004;8.246;2022-09-11T04:56:55;14.60;99.90
10702;DHT22;5402;50.004;8.246;2022-09-11T04:59:23;14.60;99.90
10702;DHT22;5402;50.004;8.246;2022-09-11T05:01:50;14.70;99.90
10702;DHT22;5402;50.004;8.246;2022-09-11T05:04:20;14.70;99.90
10702;DHT22;5402;50.004;8.246;2022-09-11T05:06:48;14.70;99.90
10702;DHT22;5402;50.004;8.246;2022-09-11T05:09:16;14.70;99.90
10702;DHT22;5402;50.004;8.246;2022-09-11T05:11:43;14.70;99.90
10702;DHT22;5402;50.004;8.246;2022-09-11T05:14:10;14.70;99.90
10702;DHT22;5402;50.004;8.246;2022-09-11T05:16:37;14.70;99.90
10702;DHT22;5402;50.004;8.246;2022-09-11T05:19:04;14.70;99.90
10702;DHT22;5402;50.004;8.246;2022-09-11T05:21:33;14.80;99.90
10702;DHT22;5402;50.004;8.246;2022-09-11T05:24:01;14.80;99.90
10702;DHT22;5402;50.004;8.246;2022-09-11T05:26:29;14.80;99.90
10702;DHT22;5402;50.004;8.246;2022-09-11T05:28:59;14.80;99.90
10702;DHT22;5402;50.004;8.246;2022-09-11T05:31:27;14.80;99.90
10702;DHT22;5402;50.004;8.246;2022-09-11T05:33:55;14.80;99.90
10702;DHT22;5402;50.004;8.246;2022-09-11T05:36:22;14.80;99.90
10702;DHT22;5402;50.004;8.246;2022-09-11T05:38:50;14.80;99.90
10702;DHT22;5402;50.004;8.246;2022-09-11T05:41:19;14.80;99.90
10702;DHT22;5402;50.004;8.246;2022-09-11T05:43:46;14.80;99.90
10702;DHT22;5402;50.004;8.246;2022-09-11T05:46:14;14.70;99.90
10702;DHT22;5402;50.004;8.246;2022-09-11T05:48:42;14.80;99.90
10702;DHT22;5402;50.004;8.246;2022-09-11T05:51:13;14.70;99.90
10702;DHT22;5402;50.004;8.246;2022-09-11T05:53:41;14.70;99.90
10702;DHT22;5402;50.004;8.246;2022-09-11T05:56:11;14.80;99.90
10702;DHT22;5402;50.004;8.246;2022-09-11T05:58:39;14.80;99.90
10702;DHT22;5402;50.004;8.246;2022-09-11T06:01:09;14.80;99.90
10702;DHT22;5402;50.004;8.246;2022-09-11T06:03:37;14.70;99.90
10702;DHT22;5402;50.004;8.246;2022-09-11T06:06:06;14.70;99.90
10702;DHT22;5402;50.004;8.246;2022-09-11T06:08:37;14.70;99.90
10702;DHT22;5402;50.004;8.246;2022-09-11T06:11:06;14.80;99.90
10702;DHT22;5402;50.004;8.246;2022-09-11T06:13:38;14.60;99.90
10702;DHT22;5402;50.004;8.246;2022-09-11T06:16:07;14.60;99.90
10702;DHT22;5402;50.004;8.246;2022-09-11T06:18:35;14.60;99.90
10702;DHT22;5402;50.004;8.246;2022-09-11T06:21:03;14.60;99.90
10702;DHT22;5402;50.004;8.246;2022-09-11T06:23:32;14.60;99.90
10702;DHT22;5402;50.004;8.246;2022-09-11T06:26:03;14.60;99.90
10702;DHT22;5402;50.004;8.246;2022-09-11T06:28:30;14.60;99.90
10702;DHT22;5402;50.004;8.246;2022-09-11T06:30:58;14.60;99.90
10702;DHT22;5402;50.004;8.246;2022-09-11T06:33:30;14.70;99.90
10702;DHT22;5402;50.004;8.246;2022-09-11T06:35:59;14.70;99.90
10702;DHT22;5402;50.004;8.246;2022-09-11T06:38:27;14.70;99.90
10702;DHT22;5402;50.004;8.246;2022-09-11T06:40:54;14.70;99.90
10702;DHT22;5402;50.004;8.246;2022-09-11T06:43:22;14.80;99.90
10702;DHT22;5402;50.004;8.246;2022-09-11T06:45:49;14.80;99.90
10702;DHT22;5402;50.004;8.246;2022-09-11T06:48:18;14.90;99.90
10702;DHT22;5402;50.004;8.246;2022-09-11T06:50:45;14.90;99.90
10702;DHT22;5402;50.004;8.246;2022-09-11T06:53:12;14.90;99.90
10702;DHT22;5402;50.004;8.246;2022-09-11T06:55:40;15.10;99.90
10702;DHT22;5402;50.004;8.246;2022-09-11T06:58:07;15.10;99.90
10702;DHT22;5402;50.004;8.246;2022-09-11T07:00:34;15.30;99.90
10702;DHT22;5402;50.004;8.246;2022-09-11T07:03:01;15.40;99.90
10702;DHT22;5402;50.004;8.246;2022-09-11T07:05:29;15.40;99.90
10702;DHT22;5402;50.004;8.246;2022-09-11T07:08:00;15.50;99.90
10702;DHT22;5402;50.004;8.246;2022-09-11T07:10:27;15.60;99.90
10702;DHT22;5402;50.004;8.246;2022-09-11T07:12:54;15.70;99.90
10702;DHT22;5402;50.004;8.246;2022-09-11T07:15:22;15.80;99.90
10702;DHT22;5402;50.004;8.246;2022-09-11T07:17:49;15.90;99.90
10702;DHT22;5402;50.004;8.246;2022-09-11T07:20:18;15.90;99.90
10702;DHT22;5402;50.004;8.246;2022-09-11T07:22:48;16.00;99.90
10702;DHT22;5402;50.004;8.246;2022-09-11T07:25:14;16.00;99.90
10702;DHT22;5402;50.004;8.246;2022-09-11T07:27:42;16.00;99.90
10702;DHT22;5402;50.004;8.246;2022-09-11T07:30:10;16.00;99.90
10702;DHT22;5402;50.004;8.246;2022-09-11T07:32:38;16.00;99.90
10702;DHT22;5402;50.004;8.246;2022-09-11T07:35:07;16.20;99.90
10702;DHT22;5402;50.004;8.246;2022-09-11T07:37:35;16.20;99.90
10702;DHT22;5402;50.004;8.246;2022-09-11T07:40:06;16.20;99.90
10702;DHT22;5402;50.004;8.246;2022-09-11T07:42:34;16.30;99.90
10702;DHT22;5402;50.004;8.246;2022-09-11T07:45:01;16.50;99.90
10702;DHT22;5402;50.004;8.246;2022-09-11T07:47:27;16.60;99.90
10702;DHT22;5402;50.004;8.246;2022-09-11T07:49:55;16.70;99.90
10702;DHT22;5402;50.004;8.246;2022-09-11T07:52:21;16.90;99.90
10702;DHT22;5402;50.004;8.246;2022-09-11T07:54:49;17.10;99.90
10702;DHT22;5402;50.004;8.246;2022-09-11T07:57:20;17.40;99.90
10702;DHT22;5402;50.004;8.246;2022-09-11T07:59:51;17.50;99.90
10702;DHT22;5402;50.004;8.246;2022-09-11T08:02:18;17.70;99.90
10702;DHT22;5402;50.004;8.246;2022-09-11T08:04:44;17.80;99.90
10702;DHT22;5402;50.004;8.246;2022-09-11T08:07:11;18.00;99.90
10702;DHT22;5402;50.004;8.246;2022-09-11T08:09:38;18.20;99.90
10702;DHT22;5402;50.004;8.246;2022-09-11T08:12:05;18.20;99.90
10702;DHT22;5402;50.004;8.246;2022-09-11T08:14:35;18.20;99.90
10702;DHT22;5402;50.004;8.246;2022-09-11T08:17:04;18.40;99.90
10702;DHT22;5402;50.004;8.246;2022-09-11T08:19:33;18.50;99.90
10702;DHT22;5402;50.004;8.246;2022-09-11T08:22:00;18.50;99.90
10702;DHT22;5402;50.004;8.246;2022-09-11T08:24:27;18.30;99.90
10702;DHT22;5402;50.004;8.246;2022-09-11T08:26:55;18.40;99.90
10702;DHT22;5402;50.004;8.246;2022-09-11T08:29:22;18.30;99.90
10702;DHT22;5402;50.004;8.246;2022-09-11T08:31:51;18.30;99.90
10702;DHT22;5402;50.004;8.246;2022-09-11T08:34:18;18.20;99.90
10702;DHT22;5402;50.004;8.246;2022-09-11T08:36:46;18.20;99.90
10702;DHT22;5402;50.004;8.246;2022-09-11T08:39:14;18.10;99.90
10702;DHT22;5402;50.004;8.246;2022-09-11T08:41:45;18.00;99.90
10702;DHT22;5402;50.004;8.246;2022-09-11T08:44:20;18.10;99.90
10702;DHT22;5402;50.004;8.246;2022-09-11T08:46:52;18.20;99.90
10702;DHT22;5402;50.004;8.246;2022-09-11T08:49:24;18.20;99.90
10702;DHT22;5402;50.004;8.246;2022-09-11T08:51:52;18.30;99.90
10702;DHT22;5402;50.004;8.246;2022-09-11T08:54:26;18.70;99.90
10702;DHT22;5402;50.004;8.246;2022-09-11T08:57:04;18.60;99.90
10702;DHT22;5402;50.004;8.246;2022-09-11T08:59:41;18.70;99.90
10702;DHT22;5402;50.004;8.246;2022-09-11T09:02:31;19.20;99.90
10702;DHT22;5402;50.004;8.246;2022-09-11T09:05:14;19.20;99.90
10702;DHT22;5402;50.004;8.246;2022-09-11T09:07:55;19.40;99.90
10702;DHT22;5402;50.004;8.246;2022-09-11T09:10:38;19.70;99.90
10702;DHT22;5402;50.004;8.246;2022-09-11T09:13:27;19.80;99.90
10702;DHT22;5402;50.004;8.246;2022-09-11T09:16:04;19.70;99.90
10702;DHT22;5402;50.004;8.246;2022-09-11T09:18:38;19.70;99.90
10702;DHT22;5402;50.004;8.246;2022-09-11T09:21:11;19.60;99.90
10702;DHT22;5402;50.004;8.246;2022-09-11T09:23:40;19.60;99.90
10702;DHT22;5402;50.004;8.246;2022-09-11T09:26:14;19.50;99.90
10702;DHT22;5402;50.004;8.246;2022-09-11T09:28:45;19.50;99.90
10702;DHT22;5402;50.004;8.246;2022-09-11T09:31:16;19.30;99.90
10702;DHT22;5402;50.004;8.246;2022-09-11T09:33:49;19.00;99.90
10702;DHT22;5402;50.004;8.246;2022-09-11T09:36:20;19.10;99.90
10702;DHT22;5402;50.004;8.246;2022-09-11T09:38:53;19.00;99.90
10702;DHT22;5402;50.004;8.246;2022-09-11T09:41:39;18.90;99.90
10702;DHT22;5402;50.004;8.246;2022-09-11T09:44:16;18.80;99.90
10702;DHT22;5402;50.004;8.246;2022-09-11T09:46:48;18.80;99.90
10702;DHT22;5402;50.004;8.246;2022-09-11T09:49:20;18.70;99.90
10702;DHT22;5402;50.004;8.246;2022-09-11T09:51:52;18.70;99.90
10702;DHT22;5402;50.004;8.246;2022-09-11T09:54:25;18.80;99.90
10702;DHT22;5402;50.004;8.246;2022-09-11T09:56:57;18.90;99.90
10702;DHT22;5402;50.004;8.246;2022-09-11T09:59:33;19.10;99.90
10702;DHT22;5402;50.004;8.246;2022-09-11T10:02:00;19.50;99.90
10702;DHT22;5402;50.004;8.246;2022-09-11T10:04:30;19.90;99.90
10702;DHT22;5402;50.004;8.246;2022-09-11T10:07:07;19.80;99.90
10702;DHT22;5402;50.004;8.246;2022-09-11T10:09:42;19.60;99.90
10702;DHT22;5402;50.004;8.246;2022-09-11T10:12:13;19.50;99.90
10702;DHT22;5402;50.004;8.246;2022-09-11T10:14:48;19.40;99.90
10702;DHT22;5402;50.004;8.246;2022-09-11T10:17:20;19.30;99.90
10702;DHT22;5402;50.004;8.246;2022-09-11T10:19:55;19.10;99.90
10702;DHT22;5402;50.004;8.246;2022-09-11T10:22:27;19.10;99.90
10702;DHT22;5402;50.004;8.246;2022-09-11T10:25:10;19.10;99.90
10702;DHT22;5402;50.004;8.246;2022-09-11T10:27:45;19.10;99.90
10702;DHT22;5402;50.004;8.246;2022-09-11T10:30:36;19.10;99.90
10702;DHT22;5402;50.004;8.246;2022-09-11T10:33:26;19.10;99.90
10702;DHT22;5402;50.004;8.246;2022-09-11T10:35:55;19.20;99.90
10702;DHT22;5402;50.004;8.246;2022-09-11T10:38:29;19.20;99.90
10702;DHT22;5402;50.004;8.246;2022-09-11T10:41:07;19.20;99.90
10702;DHT22;5402;50.004;8.246;2022-09-11T10:43:42;19.30;99.90
10702;DHT22;5402;50.004;8.246;2022-09-11T10:46:23;19.30;99.90
10702;DHT22;5402;50.004;8.246;2022-09-11T10:48:55;19.40;99.90
10702;DHT22;5402;50.004;8.246;2022-09-11T10:51:24;19.70;99.90
10702;DHT22;5402;50.004;8.246;2022-09-11T10:56:59;20.30;99.90
10702;DHT22;5402;50.004;8.246;2022-09-11T10:59:36;20.70;99.90
10702;DHT22;5402;50.004;8.246;2022-09-11T11:02:16;20.80;99.90
10702;DHT22;5402;50.004;8.246;2022-09-11T11:04:44;20.70;99.90
10702;DHT22;5402;50.004;8.246;2022-09-11T11:07:21;20.90;99.90
10702;DHT22;5402;50.004;8.246;2022-09-11T11:09:59;20.90;99.90
10702;DHT22;5402;50.004;8.246;2022-09-11T11:12:45;20.80;99.90
10702;DHT22;5402;50.004;8.246;2022-09-11T11:15:29;20.80;99.90
10702;DHT22;5402;50.004;8.246;2022-09-11T11:18:21;20.70;99.90
10702;DHT22;5402;50.004;8.246;2022-09-11T11:20:57;20.50;99.90
10702;DHT22;5402;50.004;8.246;2022-09-11T11:23:42;20.50;99.90
10702;DHT22;5402;50.004;8.246;2022-09-11T11:26:24;20.60;99.90
10702;DHT22;5402;50.004;8.246;2022-09-11T11:29:13;20.70;99.90
10702;DHT22;5402;50.004;8.246;2022-09-11T11:31:55;20.80;99.90
10702;DHT22;5402;50.004;8.246;2022-09-11T11:34:47;21.00;99.90
10702;DHT22;5402;50.004;8.246;2022-09-11T11:37:23;21.30;99.90
10702;DHT22;5402;50.004;8.246;2022-09-11T11:39:59;21.30;99.90
10702;DHT22;5402;50.004;8.246;2022-09-11T11:42:28;21.40;99.90
10702;DHT22;5402;50.004;8.246;2022-09-11T11:44:58;21.40;99.90
10702;DHT22;5402;50.004;8.246;2022-09-11T11:47:31;21.30;99.90
10702;DHT22;5402;50.004;8.246;2022-09-11T11:50:04;21.20;99.90
10702;DHT22;5402;50.004;8.246;2022-09-11T11:52:48;20.90;99.90
10702;DHT22;5402;50.004;8.246;2022-09-11T11:55:23;20.80;99.90
10702;DHT22;5402;50.004;8.246;2022-09-11T11:57:56;20.60;99.90
10702;DHT22;5402;50.004;8.246;2022-09-11T12:00:28;20.50;99.90
10702;DHT22;5402;50.004;8.246;2022-09-11T12:03:00;20.40;99.90
10702;DHT22;5402;50.004;8.246;2022-09-11T12:05:31;20.40;99.90
10702;DHT22;5402;50.004;8.246;2022-09-11T12:07:59;20.30;99.90
10702;DHT22;5402;50.004;8.246;2022-09-11T12:10:31;20.30;99.90
10702;DHT22;5402;50.004;8.246;2022-09-11T12:13:00;20.30;99.90
10702;DHT22;5402;50.004;8.246;2022-09-11T12:15:31;20.30;99.90
10702;DHT22;5402;50.004;8.246;2022-09-11T12:18:01;20.30;99.90
10702;DHT22;5402;50.004;8.246;2022-09-11T12:20:37;20.30;99.90
10702;DHT22;5402;50.004;8.246;2022-09-11T12:26:17;20.30;99.90
10702;DHT22;5402;50.004;8.246;2022-09-11T12:28:45;20.40;99.90
10702;DHT22;5402;50.004;8.246;2022-09-11T12:31:13;20.50;99.90
10702;DHT22;5402;50.004;8.246;2022-09-11T12:33:55;20.60;99.90
10702;DHT22;5402;50.004;8.246;2022-09-11T12:36:41;20.80;99.90
10702;DHT22;5402;50.004;8.246;2022-09-11T12:39:25;20.90;99.90
10702;DHT22;5402;50.004;8.246;2022-09-11T12:44:59;21.20;99.90
10702;DHT22;5402;50.004;8.246;2022-09-11T12:47:27;21.30;99.90
10702;DHT22;5402;50.004;8.246;2022-09-11T12:50:06;21.30;99.90
10702;DHT22;5402;50.004;8.246;2022-09-11T12:52:46;21.50;99.90
10702;DHT22;5402;50.004;8.246;2022-09-11T12:55:40;21.60;99.90
10702;DHT22;5402;50.004;8.246;2022-09-11T12:58:25;21.70;99.90
10702;DHT22;5402;50.004;8.246;2022-09-11T13:01:03;21.60;99.90
10702;DHT22;5402;50.004;8.246;2022-09-11T13:03:33;21.70;99.90
10702;DHT22;5402;50.004;8.246;2022-09-11T13:06:06;21.60;99.90
10702;DHT22;5402;50.004;8.246;2022-09-11T13:08:37;21.60;99.90
10702;DHT22;5402;50.004;8.246;2022-09-11T13:11:39;21.60;99.90
10702;DHT22;5402;50.004;8.246;2022-09-11T13:17:14;21.60;99.90
10702;DHT22;5402;50.004;8.246;2022-09-11T13:19:46;21.60;99.90
10702;DHT22;5402;50.004;8.246;2022-09-11T13:22:42;21.50;99.90
10702;DHT22;5402;50.004;8.246;2022-09-11T13:25:12;21.50;99.90
10702;DHT22;5402;50.004;8.246;2022-09-11T13:27:42;21.30;99.90
10702;DHT22;5402;50.004;8.246;2022-09-11T13:30:16;21.40;99.90
10702;DHT22;5402;50.004;8.246;2022-09-11T13:32:47;21.40;99.90
10702;DHT22;5402;50.004;8.246;2022-09-11T13:35:17;21.40;99.90
10702;DHT22;5402;50.004;8.246;2022-09-11T13:37:54;21.50;99.90
10702;DHT22;5402;50.004;8.246;2022-09-11T13:40:27;21.40;99.90
10702;DHT22;5402;50.004;8.246;2022-09-11T13:42:55;21.40;99.90
10702;DHT22;5402;50.004;8.246;2022-09-11T13:45:22;21.30;99.90
10702;DHT22;5402;50.004;8.246;2022-09-11T13:47:53;21.30;99.90
10702;DHT22;5402;50.004;8.246;2022-09-11T13:50:21;21.20;99.90
10702;DHT22;5402;50.004;8.246;2022-09-11T13:52:50;21.40;99.90
10702;DHT22;5402;50.004;8.246;2022-09-11T13:55:20;21.30;99.90
10702;DHT22;5402;50.004;8.246;2022-09-11T13:57:53;21.40;99.90
10702;DHT22;5402;50.004;8.246;2022-09-11T14:00:38;21.40;99.90
10702;DHT22;5402;50.004;8.246;2022-09-11T14:03:15;21.50;99.90
10702;DHT22;5402;50.004;8.246;2022-09-11T14:05:51;21.50;99.90
10702;DHT22;5402;50.004;8.246;2022-09-11T14:08:29;21.50;99.90
10702;DHT22;5402;50.004;8.246;2022-09-11T14:10:59;21.50;99.90
10702;DHT22;5402;50.004;8.246;2022-09-11T14:13:31;21.60;99.90
10702;DHT22;5402;50.004;8.246;2022-09-11T14:16:02;21.70;99.90
10702;DHT22;5402;50.004;8.246;2022-09-11T14:18:38;21.60;99.90
10702;DHT22;5402;50.004;8.246;2022-09-11T14:21:14;21.50;99.90
10702;DHT22;5402;50.004;8.246;2022-09-11T14:23:45;21.50;99.90
10702;DHT22;5402;50.004;8.246;2022-09-11T14:26:14;21.60;99.90
10702;DHT22;5402;50.004;8.246;2022-09-11T14:28:59;21.60;99.90
10702;DHT22;5402;50.004;8.246;2022-09-11T14:31:36;21.60;99.90
10702;DHT22;5402;50.004;8.246;2022-09-11T14:34:15;21.70;99.90
10702;DHT22;5402;50.004;8.246;2022-09-11T14:36:46;21.70;99.90
10702;DHT22;5402;50.004;8.246;2022-09-11T14:39:21;21.70;99.90
10702;DHT22;5402;50.004;8.246;2022-09-11T14:41:49;21.70;99.90
10702;DHT22;5402;50.004;8.246;2022-09-11T14:44:19;21.70;99.90
10702;DHT22;5402;50.004;8.246;2022-09-11T14:46:50;21.70;99.90
10702;DHT22;5402;50.004;8.246;2022-09-11T14:49:19;21.70;99.90
10702;DHT22;5402;50.004;8.246;2022-09-11T14:51:51;21.80;99.90
10702;DHT22;5402;50.004;8.246;2022-09-11T14:54:20;21.90;99.90
10702;DHT22;5402;50.004;8.246;2022-09-11T14:56:49;22.00;99.90
10702;DHT22;5402;50.004;8.246;2022-09-11T14:59:17;22.10;99.90
10702;DHT22;5402;50.004;8.246;2022-09-11T15:01:44;22.10;99.90
10702;DHT22;5402;50.004;8.246;2022-09-11T15:04:19;22.20;99.90
10702;DHT22;5402;50.004;8.246;2022-09-11T15:06:49;22.10;99.90
10702;DHT22;5402;50.004;8.246;2022-09-11T15:09:18;22.10;99.90
10702;DHT22;5402;50.004;8.246;2022-09-11T15:11:46;22.10;99.90
10702;DHT22;5402;50.004;8.246;2022-09-11T15:14:17;22.00;99.90
10702;DHT22;5402;50.004;8.246;2022-09-11T15:16:45;22.00;99.90
10702;DHT22;5402;50.004;8.246;2022-09-11T15:19:12;22.00;99.90
10702;DHT22;5402;50.004;8.246;2022-09-11T15:21:41;22.00;99.90
10702;DHT22;5402;50.004;8.246;2022-09-11T15:24:08;22.00;99.90
10702;DHT22;5402;50.004;8.246;2022-09-11T15:26:37;21.90;99.90
10702;DHT22;5402;50.004;8.246;2022-09-11T15:29:07;22.00;99.90
10702;DHT22;5402;50.004;8.246;2022-09-11T15:31:38;22.00;99.90
10702;DHT22;5402;50.004;8.246;2022-09-11T15:34:05;22.00;99.90
10702;DHT22;5402;50.004;8.246;2022-09-11T15:36:32;22.00;99.90
10702;DHT22;5402;50.004;8.246;2022-09-11T15:39:11;22.00;99.90
10702;DHT22;5402;50.004;8.246;2022-09-11T15:41:39;21.90;99.90
10702;DHT22;5402;50.004;8.246;2022-09-11T15:44:15;21.90;99.90
10702;DHT22;5402;50.004;8.246;2022-09-11T15:46:44;21.90;99.90
10702;DHT22;5402;50.004;8.246;2022-09-11T15:49:14;21.80;99.90
10702;DHT22;5402;50.004;8.246;2022-09-11T15:51:40;21.80;99.90
10702;DHT22;5402;50.004;8.246;2022-09-11T15:54:10;21.90;99.90
10702;DHT22;5402;50.004;8.246;2022-09-11T15:56:38;21.90;99.90
10702;DHT22;5402;50.004;8.246;2022-09-11T15:59:04;21.90;99.90
10702;DHT22;5402;50.004;8.246;2022-09-11T16:01:33;21.90;99.90
10702;DHT22;5402;50.004;8.246;2022-09-11T16:04:03;21.80;99.90
10702;DHT22;5402;50.004;8.246;2022-09-11T16:06:33;21.80;99.90
10702;DHT22;5402;50.004;8.246;2022-09-11T16:09:07;21.80;99.90
10702;DHT22;5402;50.004;8.246;2022-09-11T16:11:36;21.90;99.90
10702;DHT22;5402;50.004;8.246;2022-09-11T16:14:06;21.80;99.90
10702;DHT22;5402;50.004;8.246;2022-09-11T16:16:33;21.80;99.90
10702;DHT22;5402;50.004;8.246;2022-09-11T16:19:00;21.80;99.90
10702;DHT22;5402;50.004;8.246;2022-09-11T16:21:27;21.80;99.90
10702;DHT22;5402;50.004;8.246;2022-09-11T16:23:54;21.70;99.90
10702;DHT22;5402;50.004;8.246;2022-09-11T16:26:21;21.70;99.90